sensor_id;sensor_type;location;lat;lon;timestamp;P1;durP1;ratioP1;P2;durP2;ratioP2
40256;SDS011;25977;45.462;9.210;2022-08-06T00:02:17;1.33;;;1.23;;
40256;SDS011;25977;45.462;9.210;2022-08-06T00:04:48;1.23;;;1.13;;
40256;SDS011;25977;45.462;9.210;2022-08-06T00:07:15;4.07;;;1.00;;
40256;SDS011;25977;45.462;9.210;2022-08-06T00:09:41;1.02;;;1.02;;
40256;SDS011;25977;45.462;9.210;2022-08-06T00:12:07;1.65;;;0.85;;
40256;SDS011;25977;45.462;9.210;2022-08-06T00:14:33;2.15;;;1.10;;
40256;SDS011;25977;45.462;9.210;2022-08-06T00:16:59;1.13;;;1.13;;
40256;SDS011;25977;45.462;9.210;2022-08-06T00:19:25;1.77;;;1.33;;
40256;SDS011;25977;45.462;9.210;2022-08-06T00:21:51;5.72;;;1.10;;
40256;SDS011;25977;45.462;9.210;2022-08-06T00:24:18;2.40;;;1.20;;
40256;SDS011;25977;45.462;9.210;2022-08-06T00:26:43;1.38;;;1.27;;
40256;SDS011;25977;45.462;9.210;2022-08-06T00:29:09;2.17;;;1.35;;
40256;SDS011;25977;45.462;9.210;2022-08-06T00:31:35;4.45;;;1.70;;
40256;SDS011;25977;45.462;9.210;2022-08-06T00:34:01;1.83;;;1.10;;
40256;SDS011;25977;45.462;9.210;2022-08-06T00:36:29;1.40;;;0.98;;
40256;SDS011;25977;45.462;9.210;2022-08-06T00:39:00;1.90;;;1.33;;
40256;SDS011;25977;45.462;9.210;2022-08-06T00:43:54;3.25;;;1.60;;
40256;SDS011;25977;45.462;9.210;2022-08-06T00:46:21;6.45;;;1.13;;
40256;SDS011;25977;45.462;9.210;2022-08-06T00:48:50;1.95;;;1.35;;
40256;SDS011;25977;45.462;9.210;2022-08-06T00:51:17;4.63;;;1.65;;
40256;SDS011;25977;45.462;9.210;2022-08-06T00:53:42;3.30;;;1.77;;
40256;SDS011;25977;45.462;9.210;2022-08-06T00:56:08;2.33;;;1.77;;
40256;SDS011;25977;45.462;9.210;2022-08-06T00:58:34;2.53;;;1.60;;
40256;SDS011;25977;45.462;9.210;2022-08-06T01:01:00;2.00;;;1.77;;
40256;SDS011;25977;45.462;9.210;2022-08-06T01:03:26;5.72;;;2.78;;
40256;SDS011;25977;45.462;9.210;2022-08-06T01:05:52;1.83;;;1.73;;
40256;SDS011;25977;45.462;9.210;2022-08-06T01:08:18;3.20;;;2.28;;
40256;SDS011;25977;45.462;9.210;2022-08-06T01:10:44;4.05;;;2.05;;
40256;SDS011;25977;45.462;9.210;2022-08-06T01:13:10;3.38;;;1.92;;
40256;SDS011;25977;45.462;9.210;2022-08-06T01:15:36;2.78;;;2.20;;
40256;SDS011;25977;45.462;9.210;2022-08-06T01:18:05;4.13;;;2.33;;
40256;SDS011;25977;45.462;9.210;2022-08-06T01:23:51;4.68;;;2.45;;
40256;SDS011;25977;45.462;9.210;2022-08-06T01:29:00;3.08;;;2.88;;
40256;SDS011;25977;45.462;9.210;2022-08-06T01:31:49;3.58;;;3.20;;
40256;SDS011;25977;45.462;9.210;2022-08-06T01:34:38;7.50;;;3.92;;
40256;SDS011;25977;45.462;9.210;2022-08-06T01:37:12;9.50;;;3.45;;
40256;SDS011;25977;45.462;9.210;2022-08-06T01:39:55;8.80;;;4.25;;
40256;SDS011;25977;45.462;9.210;2022-08-06T01:42:25;4.63;;;3.73;;
40256;SDS011;25977;45.462;9.210;2022-08-06T01:44:54;4.72;;;3.83;;
40256;SDS011;25977;45.462;9.210;2022-08-06T01:47:26;4.35;;;3.40;;
40256;SDS011;25977;45.462;9.210;2022-08-06T01:49:55;5.68;;;4.40;;
40256;SDS011;25977;45.462;9.210;2022-08-06T01:52:23;6.68;;;3.88;;
40256;SDS011;25977;45.462;9.210;2022-08-06T01:54:50;5.65;;;4.13;;
40256;SDS011;25977;45.462;9.210;2022-08-06T01:57:17;7.43;;;4.20;;
40256;SDS011;25977;45.462;9.210;2022-08-06T01:59:47;8.60;;;3.72;;
40256;SDS011;25977;45.462;9.210;2022-08-06T02:02:15;4.28;;;3.92;;
40256;SDS011;25977;45.462;9.210;2022-08-06T02:04:45;9.30;;;4.10;;
40256;SDS011;25977;45.462;9.210;2022-08-06T02:07:15;4.65;;;4.15;;
40256;SDS011;25977;45.462;9.210;2022-08-06T02:09:44;6.82;;;4.07;;
40256;SDS011;25977;45.462;9.210;2022-08-06T02:12:17;4.93;;;3.88;;
40256;SDS011;25977;45.462;9.210;2022-08-06T02:14:51;5.45;;;4.63;;
40256;SDS011;25977;45.462;9.210;2022-08-06T02:17:29;6.30;;;4.00;;
40256;SDS011;25977;45.462;9.210;2022-08-06T02:19:58;6.75;;;4.80;;
40256;SDS011;25977;45.462;9.210;2022-08-06T02:22:29;5.03;;;3.72;;
40256;SDS011;25977;45.462;9.210;2022-08-06T02:24:58;4.97;;;4.50;;
40256;SDS011;25977;45.462;9.210;2022-08-06T02:27:27;6.63;;;4.63;;
40256;SDS011;25977;45.462;9.210;2022-08-06T02:29:56;5.32;;;4.53;;
40256;SDS011;25977;45.462;9.210;2022-08-06T02:32:24;5.20;;;4.82;;
40256;SDS011;25977;45.462;9.210;2022-08-06T02:34:49;4.88;;;4.55;;
40256;SDS011;25977;45.462;9.210;2022-08-06T02:37:17;7.05;;;5.35;;
40256;SDS011;25977;45.462;9.210;2022-08-06T02:39:49;3.83;;;3.40;;
40256;SDS011;25977;45.462;9.210;2022-08-06T02:42:22;4.50;;;4.13;;
40256;SDS011;25977;45.462;9.210;2022-08-06T02:45:02;4.75;;;4.18;;
40256;SDS011;25977;45.462;9.210;2022-08-06T02:47:53;5.35;;;4.30;;
40256;SDS011;25977;45.462;9.210;2022-08-06T02:50:35;4.88;;;4.13;;
40256;SDS011;25977;45.462;9.210;2022-08-06T02:53:06;6.40;;;3.97;;
40256;SDS011;25977;45.462;9.210;2022-08-06T02:55:35;5.18;;;4.13;;
40256;SDS011;25977;45.462;9.210;2022-08-06T02:58:08;5.05;;;4.22;;
40256;SDS011;25977;45.462;9.210;2022-08-06T03:00:41;6.28;;;3.92;;
40256;SDS011;25977;45.462;9.210;2022-08-06T03:03:09;4.60;;;4.20;;
40256;SDS011;25977;45.462;9.210;2022-08-06T03:05:38;4.07;;;3.67;;
40256;SDS011;25977;45.462;9.210;2022-08-06T03:08:09;5.63;;;3.83;;
40256;SDS011;25977;45.462;9.210;2022-08-06T03:10:38;6.47;;;4.10;;
40256;SDS011;25977;45.462;9.210;2022-08-06T03:13:04;5.10;;;4.28;;
40256;SDS011;25977;45.462;9.210;2022-08-06T03:15:32;6.18;;;4.32;;
40256;SDS011;25977;45.462;9.210;2022-08-06T03:18:00;4.50;;;4.10;;
40256;SDS011;25977;45.462;9.210;2022-08-06T03:20:28;4.22;;;3.83;;
40256;SDS011;25977;45.462;9.210;2022-08-06T03:22:57;4.75;;;4.10;;
40256;SDS011;25977;45.462;9.210;2022-08-06T03:25:26;4.32;;;4.07;;
40256;SDS011;25977;45.462;9.210;2022-08-06T03:27:52;4.53;;;3.92;;
40256;SDS011;25977;45.462;9.210;2022-08-06T03:30:19;5.03;;;4.10;;
40256;SDS011;25977;45.462;9.210;2022-08-06T03:32:46;4.40;;;4.10;;
40256;SDS011;25977;45.462;9.210;2022-08-06T03:35:13;3.78;;;3.38;;
40256;SDS011;25977;45.462;9.210;2022-08-06T03:37:43;6.22;;;4.30;;
40256;SDS011;25977;45.462;9.210;2022-08-06T03:40:10;6.22;;;4.10;;
40256;SDS011;25977;45.462;9.210;2022-08-06T03:42:37;5.15;;;3.53;;
40256;SDS011;25977;45.462;9.210;2022-08-06T03:45:03;4.68;;;4.22;;
40256;SDS011;25977;45.462;9.210;2022-08-06T03:47:31;3.92;;;3.70;;
40256;SDS011;25977;45.462;9.210;2022-08-06T03:50:07;8.98;;;3.65;;
40256;SDS011;25977;45.462;9.210;2022-08-06T03:52:41;4.15;;;3.72;;
40256;SDS011;25977;45.462;9.210;2022-08-06T03:55:12;8.30;;;4.90;;
40256;SDS011;25977;45.462;9.210;2022-08-06T03:57:43;4.25;;;3.92;;
40256;SDS011;25977;45.462;9.210;2022-08-06T04:00:12;5.05;;;3.70;;
40256;SDS011;25977;45.462;9.210;2022-08-06T04:02:42;4.00;;;3.17;;
40256;SDS011;25977;45.462;9.210;2022-08-06T04:05:11;7.25;;;3.47;;
40256;SDS011;25977;45.462;9.210;2022-08-06T04:07:40;3.92;;;3.65;;
40256;SDS011;25977;45.462;9.210;2022-08-06T04:10:06;6.80;;;3.58;;
40256;SDS011;25977;45.462;9.210;2022-08-06T04:12:33;4.47;;;3.40;;
40256;SDS011;25977;45.462;9.210;2022-08-06T04:14:59;10.50;;;3.78;;
40256;SDS011;25977;45.462;9.210;2022-08-06T04:17:26;9.48;;;3.95;;
40256;SDS011;25977;45.462;9.210;2022-08-06T04:19:52;4.60;;;3.70;;
40256;SDS011;25977;45.462;9.210;2022-08-06T04:22:19;3.88;;;3.45;;
40256;SDS011;25977;45.462;9.210;2022-08-06T04:24:45;4.35;;;3.58;;
40256;SDS011;25977;45.462;9.210;2022-08-06T04:27:11;4.47;;;3.80;;
40256;SDS011;25977;45.462;9.210;2022-08-06T04:29:39;4.00;;;3.60;;
40256;SDS011;25977;45.462;9.210;2022-08-06T04:32:07;4.22;;;3.45;;
40256;SDS011;25977;45.462;9.210;2022-08-06T04:34:35;3.38;;;3.08;;
40256;SDS011;25977;45.462;9.210;2022-08-06T04:37:04;3.90;;;3.33;;
40256;SDS011;25977;45.462;9.210;2022-08-06T04:39:30;3.47;;;3.28;;
40256;SDS011;25977;45.462;9.210;2022-08-06T04:41:57;3.92;;;2.90;;
40256;SDS011;25977;45.462;9.210;2022-08-06T04:44:24;3.65;;;3.05;;
40256;SDS011;25977;45.462;9.210;2022-08-06T04:46:52;4.97;;;3.58;;
40256;SDS011;25977;45.462;9.210;2022-08-06T04:49:19;6.45;;;3.25;;
40256;SDS011;25977;45.462;9.210;2022-08-06T04:51:45;3.22;;;3.03;;
40256;SDS011;25977;45.462;9.210;2022-08-06T04:54:12;3.45;;;2.80;;
40256;SDS011;25977;45.462;9.210;2022-08-06T04:56:39;3.50;;;3.22;;
40256;SDS011;25977;45.462;9.210;2022-08-06T04:59:06;7.32;;;2.85;;
40256;SDS011;25977;45.462;9.210;2022-08-06T05:01:32;2.92;;;2.33;;
40256;SDS011;25977;45.462;9.210;2022-08-06T05:03:57;5.05;;;3.17;;
40256;SDS011;25977;45.462;9.210;2022-08-06T05:06:25;3.13;;;2.92;;
40256;SDS011;25977;45.462;9.210;2022-08-06T05:09:03;6.22;;;2.75;;
40256;SDS011;25977;45.462;9.210;2022-08-06T05:11:38;2.80;;;2.60;;
40256;SDS011;25977;45.462;9.210;2022-08-06T05:14:09;5.50;;;2.30;;
40256;SDS011;25977;45.462;9.210;2022-08-06T05:16:41;3.28;;;2.65;;
40256;SDS011;25977;45.462;9.210;2022-08-06T05:19:11;3.45;;;2.45;;
40256;SDS011;25977;45.462;9.210;2022-08-06T05:21:46;3.95;;;2.15;;
40256;SDS011;25977;45.462;9.210;2022-08-06T05:24:14;2.80;;;2.00;;
40256;SDS011;25977;45.462;9.210;2022-08-06T05:26:41;2.55;;;2.35;;
40256;SDS011;25977;45.462;9.210;2022-08-06T05:29:07;2.40;;;2.30;;
40256;SDS011;25977;45.462;9.210;2022-08-06T05:31:33;2.22;;;1.70;;
40256;SDS011;25977;45.462;9.210;2022-08-06T05:34:01;2.38;;;1.80;;
40256;SDS011;25977;45.462;9.210;2022-08-06T05:36:27;4.15;;;2.10;;
40256;SDS011;25977;45.462;9.210;2022-08-06T05:38:53;2.60;;;2.40;;
40256;SDS011;25977;45.462;9.210;2022-08-06T05:41:18;6.45;;;2.25;;
40256;SDS011;25977;45.462;9.210;2022-08-06T05:43:44;2.30;;;1.80;;
40256;SDS011;25977;45.462;9.210;2022-08-06T05:46:15;3.92;;;2.35;;
40256;SDS011;25977;45.462;9.210;2022-08-06T05:48:45;1.60;;;1.50;;
40256;SDS011;25977;45.462;9.210;2022-08-06T05:53:49;5.03;;;2.40;;
40256;SDS011;25977;45.462;9.210;2022-08-06T05:56:23;3.58;;;1.85;;
40256;SDS011;25977;45.462;9.210;2022-08-06T05:58:56;3.47;;;1.83;;
40256;SDS011;25977;45.462;9.210;2022-08-06T06:01:26;2.22;;;1.88;;
40256;SDS011;25977;45.462;9.210;2022-08-06T06:03:52;2.17;;;1.23;;
40256;SDS011;25977;45.462;9.210;2022-08-06T06:06:23;4.50;;;1.85;;
40256;SDS011;25977;45.462;9.210;2022-08-06T06:08:49;3.35;;;2.00;;
40256;SDS011;25977;45.462;9.210;2022-08-06T06:11:16;2.45;;;1.90;;
40256;SDS011;25977;45.462;9.210;2022-08-06T06:13:42;3.67;;;2.50;;
40256;SDS011;25977;45.462;9.210;2022-08-06T06:16:23;14.27;;;3.03;;
40256;SDS011;25977;45.462;9.210;2022-08-06T06:24:13;1.77;;;1.67;;
40256;SDS011;25977;45.462;9.210;2022-08-06T06:32:13;5.45;;;1.77;;
40256;SDS011;25977;45.462;9.210;2022-08-06T06:43:02;4.57;;;1.80;;
40256;SDS011;25977;45.462;9.210;2022-08-06T06:45:55;2.75;;;1.75;;
40256;SDS011;25977;45.462;9.210;2022-08-06T06:48:27;3.78;;;2.17;;
40256;SDS011;25977;45.462;9.210;2022-08-06T06:51:07;2.53;;;1.90;;
40256;SDS011;25977;45.462;9.210;2022-08-06T06:53:37;2.30;;;2.03;;
40256;SDS011;25977;45.462;9.210;2022-08-06T06:56:07;2.45;;;1.88;;
40256;SDS011;25977;45.462;9.210;2022-08-06T06:58:45;5.45;;;1.95;;
40256;SDS011;25977;45.462;9.210;2022-08-06T07:01:15;2.28;;;2.03;;
40256;SDS011;25977;45.462;9.210;2022-08-06T07:03:44;6.50;;;2.30;;
40256;SDS011;25977;45.462;9.210;2022-08-06T07:06:12;4.18;;;1.60;;
40256;SDS011;25977;45.462;9.210;2022-08-06T07:08:41;2.67;;;1.60;;
40256;SDS011;25977;45.462;9.210;2022-08-06T07:11:14;1.58;;;1.48;;
40256;SDS011;25977;45.462;9.210;2022-08-06T07:13:45;1.67;;;1.58;;
40256;SDS011;25977;45.462;9.210;2022-08-06T07:16:12;1.50;;;1.50;;
40256;SDS011;25977;45.462;9.210;2022-08-06T07:18:41;1.73;;;1.15;;
40256;SDS011;25977;45.462;9.210;2022-08-06T07:21:09;3.67;;;1.80;;
40256;SDS011;25977;45.462;9.210;2022-08-06T07:23:37;1.48;;;1.38;;
40256;SDS011;25977;45.462;9.210;2022-08-06T07:26:03;1.50;;;1.23;;
40256;SDS011;25977;45.462;9.210;2022-08-06T07:28:30;1.17;;;1.08;;
40256;SDS011;25977;45.462;9.210;2022-08-06T07:30:58;1.17;;;1.08;;
40256;SDS011;25977;45.462;9.210;2022-08-06T07:33:28;1.60;;;1.27;;
40256;SDS011;25977;45.462;9.210;2022-08-06T07:35:54;4.82;;;1.20;;
40256;SDS011;25977;45.462;9.210;2022-08-06T07:38:21;1.70;;;1.00;;
40256;SDS011;25977;45.462;9.210;2022-08-06T07:40:52;2.10;;;1.65;;
40256;SDS011;25977;45.462;9.210;2022-08-06T07:43:32;2.97;;;1.70;;
40256;SDS011;25977;45.462;9.210;2022-08-06T07:46:04;2.33;;;1.25;;
40256;SDS011;25977;45.462;9.210;2022-08-06T07:48:36;1.83;;;1.27;;
40256;SDS011;25977;45.462;9.210;2022-08-06T07:51:05;1.65;;;1.55;;
40256;SDS011;25977;45.462;9.210;2022-08-06T07:53:32;5.65;;;2.05;;
40256;SDS011;25977;45.462;9.210;2022-08-06T07:56:03;1.98;;;1.85;;
40256;SDS011;25977;45.462;9.210;2022-08-06T07:58:31;2.53;;;2.20;;
40256;SDS011;25977;45.462;9.210;2022-08-06T08:00:59;3.13;;;2.85;;
40256;SDS011;25977;45.462;9.210;2022-08-06T08:03:25;3.75;;;2.55;;
40256;SDS011;25977;45.462;9.210;2022-08-06T08:06:11;4.45;;;2.95;;
40256;SDS011;25977;45.462;9.210;2022-08-06T08:08:46;6.30;;;2.40;;
40256;SDS011;25977;45.462;9.210;2022-08-06T08:11:13;3.65;;;2.75;;
40256;SDS011;25977;45.462;9.210;2022-08-06T08:13:40;5.38;;;1.88;;
40256;SDS011;25977;45.462;9.210;2022-08-06T08:16:06;10.18;;;3.13;;
40256;SDS011;25977;45.462;9.210;2022-08-06T08:18:33;3.53;;;2.38;;
40256;SDS011;25977;45.462;9.210;2022-08-06T08:21:00;3.90;;;2.38;;
40256;SDS011;25977;45.462;9.210;2022-08-06T08:23:27;3.05;;;2.85;;
40256;SDS011;25977;45.462;9.210;2022-08-06T08:25:56;2.67;;;2.13;;
40256;SDS011;25977;45.462;9.210;2022-08-06T08:28:23;2.53;;;2.42;;
40256;SDS011;25977;45.462;9.210;2022-08-06T08:30:49;2.53;;;2.33;;
40256;SDS011;25977;45.462;9.210;2022-08-06T08:33:19;2.95;;;2.22;;
40256;SDS011;25977;45.462;9.210;2022-08-06T08:35:46;2.75;;;2.50;;
40256;SDS011;25977;45.462;9.210;2022-08-06T08:38:12;4.70;;;3.20;;
40256;SDS011;25977;45.462;9.210;2022-08-06T08:40:38;5.32;;;3.65;;
40256;SDS011;25977;45.462;9.210;2022-08-06T08:43:05;3.40;;;2.80;;
40256;SDS011;25977;45.462;9.210;2022-08-06T08:45:33;2.40;;;2.30;;
40256;SDS011;25977;45.462;9.210;2022-08-06T08:48:01;2.63;;;2.42;;
40256;SDS011;25977;45.462;9.210;2022-08-06T08:50:29;2.53;;;2.25;;
40256;SDS011;25977;45.462;9.210;2022-08-06T08:52:58;2.70;;;2.50;;
40256;SDS011;25977;45.462;9.210;2022-08-06T08:55:31;7.30;;;2.38;;
40256;SDS011;25977;45.462;9.210;2022-08-06T08:57:58;5.18;;;3.47;;
40256;SDS011;25977;45.462;9.210;2022-08-06T09:00:24;3.00;;;2.80;;
40256;SDS011;25977;45.462;9.210;2022-08-06T09:02:50;4.72;;;3.13;;
40256;SDS011;25977;45.462;9.210;2022-08-06T09:05:16;3.85;;;2.83;;
40256;SDS011;25977;45.462;9.210;2022-08-06T09:07:43;5.70;;;3.58;;
40256;SDS011;25977;45.462;9.210;2022-08-06T09:10:09;6.93;;;3.85;;
40256;SDS011;25977;45.462;9.210;2022-08-06T09:12:35;5.78;;;3.70;;
40256;SDS011;25977;45.462;9.210;2022-08-06T09:15:01;5.53;;;4.88;;
40256;SDS011;25977;45.462;9.210;2022-08-06T09:17:28;5.53;;;4.03;;
40256;SDS011;25977;45.462;9.210;2022-08-06T09:19:55;4.13;;;3.88;;
40256;SDS011;25977;45.462;9.210;2022-08-06T09:22:21;4.05;;;3.53;;
40256;SDS011;25977;45.462;9.210;2022-08-06T09:24:47;6.55;;;4.35;;
40256;SDS011;25977;45.462;9.210;2022-08-06T09:27:16;8.02;;;5.80;;
40256;SDS011;25977;45.462;9.210;2022-08-06T09:29:50;11.20;;;5.37;;
40256;SDS011;25977;45.462;9.210;2022-08-06T09:37:49;3.78;;;3.47;;
40256;SDS011;25977;45.462;9.210;2022-08-06T09:40:23;6.47;;;3.70;;
40256;SDS011;25977;45.462;9.210;2022-08-06T09:42:49;6.60;;;3.63;;
40256;SDS011;25977;45.462;9.210;2022-08-06T09:45:18;6.32;;;3.75;;
40256;SDS011;25977;45.462;9.210;2022-08-06T09:47:45;5.35;;;3.35;;
40256;SDS011;25977;45.462;9.210;2022-08-06T09:50:40;9.48;;;4.22;;
40256;SDS011;25977;45.462;9.210;2022-08-06T09:53:07;6.68;;;3.78;;
40256;SDS011;25977;45.462;9.210;2022-08-06T09:55:34;3.53;;;3.22;;
40256;SDS011;25977;45.462;9.210;2022-08-06T09:58:00;4.13;;;3.80;;
40256;SDS011;25977;45.462;9.210;2022-08-06T10:00:30;5.95;;;3.55;;
40256;SDS011;25977;45.462;9.210;2022-08-06T10:02:58;3.13;;;2.92;;
40256;SDS011;25977;45.462;9.210;2022-08-06T10:05:26;3.60;;;3.40;;
40256;SDS011;25977;45.462;9.210;2022-08-06T10:08:14;5.00;;;4.53;;
40256;SDS011;25977;45.462;9.210;2022-08-06T10:10:44;4.13;;;3.20;;
40256;SDS011;25977;45.462;9.210;2022-08-06T10:13:16;3.58;;;3.30;;
40256;SDS011;25977;45.462;9.210;2022-08-06T10:15:49;6.63;;;3.13;;
40256;SDS011;25977;45.462;9.210;2022-08-06T10:21:05;3.50;;;3.20;;
40256;SDS011;25977;45.462;9.210;2022-08-06T10:23:33;16.08;;;3.17;;
40256;SDS011;25977;45.462;9.210;2022-08-06T10:26:05;4.57;;;2.92;;
40256;SDS011;25977;45.462;9.210;2022-08-06T10:28:36;2.95;;;2.85;;
40256;SDS011;25977;45.462;9.210;2022-08-06T10:31:05;6.43;;;3.92;;
40256;SDS011;25977;45.462;9.210;2022-08-06T10:33:33;6.93;;;2.67;;
40256;SDS011;25977;45.462;9.210;2022-08-06T10:36:07;3.53;;;3.25;;
40256;SDS011;25977;45.462;9.210;2022-08-06T10:38:37;2.80;;;2.60;;
40256;SDS011;25977;45.462;9.210;2022-08-06T10:41:06;3.20;;;2.85;;
40256;SDS011;25977;45.462;9.210;2022-08-06T10:43:35;5.43;;;3.20;;
40256;SDS011;25977;45.462;9.210;2022-08-06T10:46:06;3.08;;;2.80;;
40256;SDS011;25977;45.462;9.210;2022-08-06T10:48:35;3.92;;;2.63;;
40256;SDS011;25977;45.462;9.210;2022-08-06T10:51:06;3.38;;;2.75;;
40256;SDS011;25977;45.462;9.210;2022-08-06T10:56:00;5.30;;;2.72;;
40256;SDS011;25977;45.462;9.210;2022-08-06T10:58:28;6.55;;;2.50;;
40256;SDS011;25977;45.462;9.210;2022-08-06T11:00:56;3.58;;;2.50;;
40256;SDS011;25977;45.462;9.210;2022-08-06T11:09:27;8.27;;;2.60;;
40256;SDS011;25977;45.462;9.210;2022-08-06T11:12:22;2.83;;;2.63;;
40256;SDS011;25977;45.462;9.210;2022-08-06T11:15:05;3.67;;;2.88;;
40256;SDS011;25977;45.462;9.210;2022-08-06T11:17:45;3.45;;;2.65;;
40256;SDS011;25977;45.462;9.210;2022-08-06T11:25:44;10.73;;;2.55;;
40256;SDS011;25977;45.462;9.210;2022-08-06T11:28:58;4.70;;;2.88;;
40256;SDS011;25977;45.462;9.210;2022-08-06T11:31:05;2.85;;;2.35;;
40256;SDS011;25977;45.462;9.210;2022-08-06T11:35:58;6.88;;;2.58;;
40256;SDS011;25977;45.462;9.210;2022-08-06T11:46:24;2.40;;;2.20;;
40256;SDS011;25977;45.462;9.210;2022-08-06T11:51:43;3.92;;;3.00;;
40256;SDS011;25977;45.462;9.210;2022-08-06T11:54:13;2.20;;;2.10;;
40256;SDS011;25977;45.462;9.210;2022-08-06T11:59:43;2.83;;;2.60;;
40256;SDS011;25977;45.462;9.210;2022-08-06T12:02:10;2.50;;;2.30;;
40256;SDS011;25977;45.462;9.210;2022-08-06T12:04:44;2.97;;;2.08;;
40256;SDS011;25977;45.462;9.210;2022-08-06T12:07:22;2.20;;;2.10;;
40256;SDS011;25977;45.462;9.210;2022-08-06T12:10:10;2.78;;;2.58;;
40256;SDS011;25977;45.462;9.210;2022-08-06T12:12:39;15.05;;;2.70;;
40256;SDS011;25977;45.462;9.210;2022-08-06T12:20:40;2.47;;;2.30;;
40256;SDS011;25977;45.462;9.210;2022-08-06T12:25:33;2.00;;;1.90;;
40256;SDS011;25977;45.462;9.210;2022-08-06T12:28:10;5.18;;;2.00;;
40256;SDS011;25977;45.462;9.210;2022-08-06T12:30:51;1.95;;;1.85;;
40256;SDS011;25977;45.462;9.210;2022-08-06T12:33:20;2.03;;;1.92;;
40256;SDS011;25977;45.462;9.210;2022-08-06T12:35:51;1.73;;;1.63;;
40256;SDS011;25977;45.462;9.210;2022-08-06T12:38:21;3.80;;;1.95;;
40256;SDS011;25977;45.462;9.210;2022-08-06T12:43:25;2.78;;;2.42;;
40256;SDS011;25977;45.462;9.210;2022-08-06T12:45:57;2.53;;;2.33;;
40256;SDS011;25977;45.462;9.210;2022-08-06T12:48:24;4.13;;;2.05;;
40256;SDS011;25977;45.462;9.210;2022-08-06T12:50:50;2.03;;;1.92;;
40256;SDS011;25977;45.462;9.210;2022-08-06T12:53:53;2.35;;;2.17;;
40256;SDS011;25977;45.462;9.210;2022-08-06T12:56:22;2.67;;;1.52;;
40256;SDS011;25977;45.462;9.210;2022-08-06T12:58:49;1.88;;;1.77;;
40256;SDS011;25977;45.462;9.210;2022-08-06T13:01:19;2.03;;;1.75;;
40256;SDS011;25977;45.462;9.210;2022-08-06T13:03:49;5.47;;;2.00;;
40256;SDS011;25977;45.462;9.210;2022-08-06T13:06:18;2.35;;;2.15;;
40256;SDS011;25977;45.462;9.210;2022-08-06T13:08:47;2.47;;;2.28;;
40256;SDS011;25977;45.462;9.210;2022-08-06T13:11:13;2.42;;;2.22;;
40256;SDS011;25977;45.462;9.210;2022-08-06T13:13:40;6.32;;;2.03;;
40256;SDS011;25977;45.462;9.210;2022-08-06T13:18:39;6.47;;;2.33;;
40256;SDS011;25977;45.462;9.210;2022-08-06T13:21:14;1.95;;;1.85;;
40256;SDS011;25977;45.462;9.210;2022-08-06T13:23:47;2.17;;;2.08;;
40256;SDS011;25977;45.462;9.210;2022-08-06T13:31:37;4.05;;;1.88;;
40256;SDS011;25977;45.462;9.210;2022-08-06T13:34:06;2.10;;;2.00;;
40256;SDS011;25977;45.462;9.210;2022-08-06T13:36:36;2.05;;;1.75;;
40256;SDS011;25977;45.462;9.210;2022-08-06T13:39:18;2.47;;;2.28;;
40256;SDS011;25977;45.462;9.210;2022-08-06T13:47:37;1.50;;;1.42;;
40256;SDS011;25977;45.462;9.210;2022-08-06T13:50:02;3.58;;;1.77;;
40256;SDS011;25977;45.462;9.210;2022-08-06T13:52:28;3.33;;;2.03;;
40256;SDS011;25977;45.462;9.210;2022-08-06T13:54:55;2.97;;;1.83;;
40256;SDS011;25977;45.462;9.210;2022-08-06T13:57:22;2.15;;;1.80;;
40256;SDS011;25977;45.462;9.210;2022-08-06T13:59:47;2.45;;;1.60;;
40256;SDS011;25977;45.462;9.210;2022-08-06T14:02:13;2.97;;;1.83;;
40256;SDS011;25977;45.462;9.210;2022-08-06T14:04:40;4.53;;;1.77;;
40256;SDS011;25977;45.462;9.210;2022-08-06T14:07:06;5.13;;;1.88;;
40256;SDS011;25977;45.462;9.210;2022-08-06T14:09:32;2.50;;;1.65;;
40256;SDS011;25977;45.462;9.210;2022-08-06T14:11:58;2.42;;;1.40;;
40256;SDS011;25977;45.462;9.210;2022-08-06T14:14:27;4.30;;;1.85;;
40256;SDS011;25977;45.462;9.210;2022-08-06T14:16:57;1.48;;;1.38;;
40256;SDS011;25977;45.462;9.210;2022-08-06T14:19:24;2.20;;;2.10;;
40256;SDS011;25977;45.462;9.210;2022-08-06T14:21:51;7.68;;;2.38;;
40256;SDS011;25977;45.462;9.210;2022-08-06T14:24:17;3.15;;;1.40;;
40256;SDS011;25977;45.462;9.210;2022-08-06T14:26:42;1.52;;;1.42;;
40256;SDS011;25977;45.462;9.210;2022-08-06T14:29:08;1.60;;;1.50;;
40256;SDS011;25977;45.462;9.210;2022-08-06T14:31:34;1.60;;;1.52;;
40256;SDS011;25977;45.462;9.210;2022-08-06T14:34:00;1.40;;;1.40;;
40256;SDS011;25977;45.462;9.210;2022-08-06T14:36:27;4.78;;;1.42;;
40256;SDS011;25977;45.462;9.210;2022-08-06T14:38:53;1.80;;;1.40;;
40256;SDS011;25977;45.462;9.210;2022-08-06T14:41:19;2.58;;;1.65;;
40256;SDS011;25977;45.462;9.210;2022-08-06T14:44:03;5.20;;;1.30;;
40256;SDS011;25977;45.462;9.210;2022-08-06T14:46:48;2.10;;;1.13;;
40256;SDS011;25977;45.462;9.210;2022-08-06T14:49:13;1.60;;;1.50;;
40256;SDS011;25977;45.462;9.210;2022-08-06T14:51:39;5.85;;;1.20;;
40256;SDS011;25977;45.462;9.210;2022-08-06T14:54:05;1.23;;;1.15;;
40256;SDS011;25977;45.462;9.210;2022-08-06T14:56:31;1.33;;;1.10;;
40256;SDS011;25977;45.462;9.210;2022-08-06T14:58:56;1.40;;;1.17;;
40256;SDS011;25977;45.462;9.210;2022-08-06T15:01:22;0.93;;;0.75;;
40256;SDS011;25977;45.462;9.210;2022-08-06T15:03:48;0.82;;;0.82;;
40256;SDS011;25977;45.462;9.210;2022-08-06T15:06:14;3.53;;;1.02;;
40256;SDS011;25977;45.462;9.210;2022-08-06T15:08:40;0.90;;;0.90;;
40256;SDS011;25977;45.462;9.210;2022-08-06T15:11:06;3.38;;;0.90;;
40256;SDS011;25977;45.462;9.210;2022-08-06T15:13:32;0.98;;;0.80;;
40256;SDS011;25977;45.462;9.210;2022-08-06T15:15:57;0.85;;;0.80;;
40256;SDS011;25977;45.462;9.210;2022-08-06T15:18:23;0.70;;;0.70;;
40256;SDS011;25977;45.462;9.210;2022-08-06T15:20:49;1.00;;;1.00;;
40256;SDS011;25977;45.462;9.210;2022-08-06T15:23:14;1.80;;;0.90;;
40256;SDS011;25977;45.462;9.210;2022-08-06T15:25:41;1.83;;;1.00;;
40256;SDS011;25977;45.462;9.210;2022-08-06T15:28:07;0.90;;;0.90;;
40256;SDS011;25977;45.462;9.210;2022-08-06T15:30:33;1.88;;;0.77;;
40256;SDS011;25977;45.462;9.210;2022-08-06T15:32:58;1.88;;;1.15;;
40256;SDS011;25977;45.462;9.210;2022-08-06T15:35:26;2.42;;;0.93;;
40256;SDS011;25977;45.462;9.210;2022-08-06T15:37:51;2.63;;;1.17;;
40256;SDS011;25977;45.462;9.210;2022-08-06T15:40:18;1.98;;;1.00;;
40256;SDS011;25977;45.462;9.210;2022-08-06T15:42:44;2.28;;;1.48;;
40256;SDS011;25977;45.462;9.210;2022-08-06T15:45:10;2.00;;;1.60;;
40256;SDS011;25977;45.462;9.210;2022-08-06T15:47:39;1.08;;;1.08;;
40256;SDS011;25977;45.462;9.210;2022-08-06T15:50:05;1.40;;;1.30;;
40256;SDS011;25977;45.462;9.210;2022-08-06T15:52:33;4.63;;;1.42;;
40256;SDS011;25977;45.462;9.210;2022-08-06T15:54:59;2.47;;;1.50;;
40256;SDS011;25977;45.462;9.210;2022-08-06T15:57:26;6.55;;;1.15;;
40256;SDS011;25977;45.462;9.210;2022-08-06T15:59:52;1.60;;;1.50;;
40256;SDS011;25977;45.462;9.210;2022-08-06T16:02:19;2.72;;;1.48;;
40256;SDS011;25977;45.462;9.210;2022-08-06T16:04:44;1.50;;;1.42;;
40256;SDS011;25977;45.462;9.210;2022-08-06T16:07:10;2.80;;;1.67;;
40256;SDS011;25977;45.462;9.210;2022-08-06T16:09:36;2.08;;;1.60;;
40256;SDS011;25977;45.462;9.210;2022-08-06T16:12:02;2.17;;;1.30;;
40256;SDS011;25977;45.462;9.210;2022-08-06T16:14:30;4.35;;;2.03;;
40256;SDS011;25977;45.462;9.210;2022-08-06T16:16:56;5.05;;;1.80;;
40256;SDS011;25977;45.462;9.210;2022-08-06T16:19:22;3.15;;;1.75;;
40256;SDS011;25977;45.462;9.210;2022-08-06T16:21:48;3.05;;;2.20;;
40256;SDS011;25977;45.462;9.210;2022-08-06T16:24:15;1.92;;;1.60;;
40256;SDS011;25977;45.462;9.210;2022-08-06T16:26:41;2.55;;;1.70;;
40256;SDS011;25977;45.462;9.210;2022-08-06T16:29:07;5.25;;;2.25;;
40256;SDS011;25977;45.462;9.210;2022-08-06T16:31:33;3.53;;;1.92;;
40256;SDS011;25977;45.462;9.210;2022-08-06T16:33:59;3.20;;;1.85;;